sensor_id;sensor_type;location;lat;lon;timestamp;P1;durP1;ratioP1;P2;durP2;ratioP2
15624;SDS011;7912;51.376;6.126;2022-10-16T00:01:41;4.17;;;3.20;;
15624;SDS011;7912;51.376;6.126;2022-10-16T00:04:09;5.80;;;3.20;;
15624;SDS011;7912;51.376;6.126;2022-10-16T00:06:37;3.27;;;2.90;;
15624;SDS011;7912;51.376;6.126;2022-10-16T00:09:06;3.03;;;2.73;;
15624;SDS011;7912;51.376;6.126;2022-10-16T00:11:34;4.10;;;3.47;;
15624;SDS011;7912;51.376;6.126;2022-10-16T00:14:05;3.87;;;3.10;;
15624;SDS011;7912;51.376;6.126;2022-10-16T00:16:37;4.43;;;3.13;;
15624;SDS011;7912;51.376;6.126;2022-10-16T00:19:05;4.60;;;3.20;;
15624;SDS011;7912;51.376;6.126;2022-10-16T00:21:33;3.97;;;3.37;;
15624;SDS011;7912;51.376;6.126;2022-10-16T00:24:03;3.63;;;3.27;;
15624;SDS011;7912;51.376;6.126;2022-10-16T00:26:37;3.50;;;3.20;;
15624;SDS011;7912;51.376;6.126;2022-10-16T00:29:06;6.60;;;3.23;;
15624;SDS011;7912;51.376;6.126;2022-10-16T00:31:33;3.03;;;2.73;;
15624;SDS011;7912;51.376;6.126;2022-10-16T00:34:01;3.70;;;3.40;;
15624;SDS011;7912;51.376;6.126;2022-10-16T00:36:28;4.00;;;3.30;;
15624;SDS011;7912;51.376;6.126;2022-10-16T00:38:57;3.73;;;3.27;;
15624;SDS011;7912;51.376;6.126;2022-10-16T00:41:27;4.73;;;3.17;;
15624;SDS011;7912;51.376;6.126;2022-10-16T00:43:59;3.47;;;2.97;;
15624;SDS011;7912;51.376;6.126;2022-10-16T00:46:31;3.53;;;3.03;;
15624;SDS011;7912;51.376;6.126;2022-10-16T00:49:09;3.87;;;3.00;;
15624;SDS011;7912;51.376;6.126;2022-10-16T00:51:41;3.97;;;3.03;;
15624;SDS011;7912;51.376;6.126;2022-10-16T00:54:23;3.57;;;2.83;;
15624;SDS011;7912;51.376;6.126;2022-10-16T00:56:55;3.13;;;2.40;;
15624;SDS011;7912;51.376;6.126;2022-10-16T01:01:57;2.73;;;2.53;;
15624;SDS011;7912;51.376;6.126;2022-10-16T01:04:30;2.67;;;2.47;;
15624;SDS011;7912;51.376;6.126;2022-10-16T01:09:57;2.70;;;2.40;;
15624;SDS011;7912;51.376;6.126;2022-10-16T01:16:13;2.77;;;2.43;;
15624;SDS011;7912;51.376;6.126;2022-10-16T01:19:18;3.43;;;2.80;;
15624;SDS011;7912;51.376;6.126;2022-10-16T01:22:18;3.10;;;2.80;;
15624;SDS011;7912;51.376;6.126;2022-10-16T01:24:52;4.13;;;2.67;;
15624;SDS011;7912;51.376;6.126;2022-10-16T01:27:29;4.13;;;2.60;;
15624;SDS011;7912;51.376;6.126;2022-10-16T01:30:21;3.43;;;2.63;;
15624;SDS011;7912;51.376;6.126;2022-10-16T01:32:57;6.40;;;2.90;;
15624;SDS011;7912;51.376;6.126;2022-10-16T01:35:37;2.60;;;2.40;;
15624;SDS011;7912;51.376;6.126;2022-10-16T01:40:48;3.50;;;2.50;;
15624;SDS011;7912;51.376;6.126;2022-10-16T01:43:27;3.47;;;2.47;;
15624;SDS011;7912;51.376;6.126;2022-10-16T01:46:03;2.60;;;2.37;;
15624;SDS011;7912;51.376;6.126;2022-10-16T01:48:33;2.70;;;2.43;;
15624;SDS011;7912;51.376;6.126;2022-10-16T01:51:20;3.33;;;2.63;;
15624;SDS011;7912;51.376;6.126;2022-10-16T01:53:52;3.83;;;2.60;;
15624;SDS011;7912;51.376;6.126;2022-10-16T01:56:22;3.00;;;2.47;;
15624;SDS011;7912;51.376;6.126;2022-10-16T01:59:02;2.30;;;2.10;;
15624;SDS011;7912;51.376;6.126;2022-10-16T02:01:36;2.40;;;2.20;;
15624;SDS011;7912;51.376;6.126;2022-10-16T02:04:13;3.07;;;2.37;;
15624;SDS011;7912;51.376;6.126;2022-10-16T02:06:50;4.10;;;2.20;;
15624;SDS011;7912;51.376;6.126;2022-10-16T02:12:52;2.33;;;2.13;;
15624;SDS011;7912;51.376;6.126;2022-10-16T02:15:27;3.10;;;2.33;;
15624;SDS011;7912;51.376;6.126;2022-10-16T02:17:55;2.63;;;2.10;;
15624;SDS011;7912;51.376;6.126;2022-10-16T02:20:24;3.33;;;2.00;;
15624;SDS011;7912;51.376;6.126;2022-10-16T02:22:56;2.87;;;2.00;;
15624;SDS011;7912;51.376;6.126;2022-10-16T02:25:31;3.60;;;1.90;;
15624;SDS011;7912;51.376;6.126;2022-10-16T02:28:52;2.30;;;2.10;;
15624;SDS011;7912;51.376;6.126;2022-10-16T02:31:04;2.57;;;2.00;;
15624;SDS011;7912;51.376;6.126;2022-10-16T02:33:36;2.50;;;1.90;;
15624;SDS011;7912;51.376;6.126;2022-10-16T02:36:08;2.17;;;1.90;;
15624;SDS011;7912;51.376;6.126;2022-10-16T02:38:37;3.53;;;2.10;;
15624;SDS011;7912;51.376;6.126;2022-10-16T02:41:07;2.43;;;2.10;;
15624;SDS011;7912;51.376;6.126;2022-10-16T02:43:35;2.50;;;2.07;;
15624;SDS011;7912;51.376;6.126;2022-10-16T02:46:02;2.70;;;1.70;;
15624;SDS011;7912;51.376;6.126;2022-10-16T02:48:29;2.83;;;1.77;;
15624;SDS011;7912;51.376;6.126;2022-10-16T02:50:56;3.57;;;2.00;;
15624;SDS011;7912;51.376;6.126;2022-10-16T02:53:24;4.40;;;1.90;;
15624;SDS011;7912;51.376;6.126;2022-10-16T02:55:51;2.93;;;1.77;;
15624;SDS011;7912;51.376;6.126;2022-10-16T02:58:18;2.07;;;1.87;;
15624;SDS011;7912;51.376;6.126;2022-10-16T03:00:46;2.37;;;2.00;;
15624;SDS011;7912;51.376;6.126;2022-10-16T03:03:13;2.73;;;1.97;;
15624;SDS011;7912;51.376;6.126;2022-10-16T03:05:42;2.47;;;1.90;;
15624;SDS011;7912;51.376;6.126;2022-10-16T03:08:12;1.90;;;1.80;;
15624;SDS011;7912;51.376;6.126;2022-10-16T03:10:39;2.93;;;2.00;;
15624;SDS011;7912;51.376;6.126;2022-10-16T03:13:07;2.87;;;2.27;;
15624;SDS011;7912;51.376;6.126;2022-10-16T03:15:34;2.20;;;2.10;;
15624;SDS011;7912;51.376;6.126;2022-10-16T03:18:01;2.67;;;2.10;;
15624;SDS011;7912;51.376;6.126;2022-10-16T03:20:29;2.30;;;2.10;;
15624;SDS011;7912;51.376;6.126;2022-10-16T03:22:57;3.50;;;2.20;;
15624;SDS011;7912;51.376;6.126;2022-10-16T03:25:25;2.00;;;1.80;;
15624;SDS011;7912;51.376;6.126;2022-10-16T03:27:52;2.10;;;1.90;;
15624;SDS011;7912;51.376;6.126;2022-10-16T03:30:20;1.93;;;1.60;;
15624;SDS011;7912;51.376;6.126;2022-10-16T03:32:48;4.60;;;2.13;;
15624;SDS011;7912;51.376;6.126;2022-10-16T03:35:21;3.10;;;1.80;;
15624;SDS011;7912;51.376;6.126;2022-10-16T03:37:49;1.97;;;1.80;;
15624;SDS011;7912;51.376;6.126;2022-10-16T03:40:17;3.00;;;1.90;;
15624;SDS011;7912;51.376;6.126;2022-10-16T03:42:45;2.03;;;1.63;;
15624;SDS011;7912;51.376;6.126;2022-10-16T03:45:13;2.93;;;1.90;;
15624;SDS011;7912;51.376;6.126;2022-10-16T03:47:41;2.47;;;1.73;;
15624;SDS011;7912;51.376;6.126;2022-10-16T03:50:08;2.57;;;1.67;;
15624;SDS011;7912;51.376;6.126;2022-10-16T03:52:35;3.03;;;1.90;;
15624;SDS011;7912;51.376;6.126;2022-10-16T03:55:03;2.30;;;1.90;;
15624;SDS011;7912;51.376;6.126;2022-10-16T03:57:31;2.60;;;2.00;;
15624;SDS011;7912;51.376;6.126;2022-10-16T03:59:58;2.00;;;1.80;;
15624;SDS011;7912;51.376;6.126;2022-10-16T04:02:26;3.03;;;2.00;;
15624;SDS011;7912;51.376;6.126;2022-10-16T04:04:53;1.80;;;1.60;;
15624;SDS011;7912;51.376;6.126;2022-10-16T04:07:21;1.90;;;1.60;;
15624;SDS011;7912;51.376;6.126;2022-10-16T04:09:48;1.60;;;1.50;;
15624;SDS011;7912;51.376;6.126;2022-10-16T04:12:18;2.20;;;1.97;;
15624;SDS011;7912;51.376;6.126;2022-10-16T04:14:45;1.90;;;1.70;;
15624;SDS011;7912;51.376;6.126;2022-10-16T04:17:13;3.03;;;1.83;;
15624;SDS011;7912;51.376;6.126;2022-10-16T04:19:40;3.20;;;2.03;;
15624;SDS011;7912;51.376;6.126;2022-10-16T04:22:08;1.83;;;1.73;;
15624;SDS011;7912;51.376;6.126;2022-10-16T04:24:35;2.83;;;1.80;;
15624;SDS011;7912;51.376;6.126;2022-10-16T04:27:02;2.50;;;1.83;;
15624;SDS011;7912;51.376;6.126;2022-10-16T04:29:30;2.97;;;2.03;;
15624;SDS011;7912;51.376;6.126;2022-10-16T04:31:57;3.63;;;1.83;;
15624;SDS011;7912;51.376;6.126;2022-10-16T04:34:24;2.20;;;1.50;;
15624;SDS011;7912;51.376;6.126;2022-10-16T04:36:52;2.77;;;1.90;;
15624;SDS011;7912;51.376;6.126;2022-10-16T04:39:19;2.23;;;1.77;;
15624;SDS011;7912;51.376;6.126;2022-10-16T04:41:46;2.10;;;1.67;;
15624;SDS011;7912;51.376;6.126;2022-10-16T04:44:14;2.27;;;1.60;;
15624;SDS011;7912;51.376;6.126;2022-10-16T04:46:41;1.70;;;1.60;;
15624;SDS011;7912;51.376;6.126;2022-10-16T04:49:08;2.10;;;1.73;;
15624;SDS011;7912;51.376;6.126;2022-10-16T04:51:36;3.50;;;2.00;;
15624;SDS011;7912;51.376;6.126;2022-10-16T04:54:03;2.23;;;1.70;;
15624;SDS011;7912;51.376;6.126;2022-10-16T04:56:30;2.07;;;1.80;;
15624;SDS011;7912;51.376;6.126;2022-10-16T04:58:58;2.17;;;1.97;;
15624;SDS011;7912;51.376;6.126;2022-10-16T05:01:25;3.07;;;1.97;;
15624;SDS011;7912;51.376;6.126;2022-10-16T05:03:52;2.07;;;1.77;;
15624;SDS011;7912;51.376;6.126;2022-10-16T05:06:20;2.57;;;2.00;;
15624;SDS011;7912;51.376;6.126;2022-10-16T05:08:48;2.10;;;1.77;;
15624;SDS011;7912;51.376;6.126;2022-10-16T05:11:15;3.60;;;1.90;;
15624;SDS011;7912;51.376;6.126;2022-10-16T05:13:42;3.67;;;1.80;;
15624;SDS011;7912;51.376;6.126;2022-10-16T05:16:10;1.80;;;1.70;;
15624;SDS011;7912;51.376;6.126;2022-10-16T05:18:37;3.10;;;1.60;;
15624;SDS011;7912;51.376;6.126;2022-10-16T05:21:05;1.93;;;1.60;;
15624;SDS011;7912;51.376;6.126;2022-10-16T05:23:32;2.43;;;1.70;;
15624;SDS011;7912;51.376;6.126;2022-10-16T05:26:00;2.70;;;1.60;;
15624;SDS011;7912;51.376;6.126;2022-10-16T05:28:27;3.27;;;1.70;;
15624;SDS011;7912;51.376;6.126;2022-10-16T05:30:57;3.93;;;1.90;;
15624;SDS011;7912;51.376;6.126;2022-10-16T05:33:25;4.77;;;2.97;;
15624;SDS011;7912;51.376;6.126;2022-10-16T05:35:53;3.00;;;2.10;;
15624;SDS011;7912;51.376;6.126;2022-10-16T05:38:21;3.13;;;2.00;;
15624;SDS011;7912;51.376;6.126;2022-10-16T05:40:51;3.47;;;2.20;;
15624;SDS011;7912;51.376;6.126;2022-10-16T05:43:19;1.73;;;1.63;;
15624;SDS011;7912;51.376;6.126;2022-10-16T05:45:55;2.87;;;1.90;;
15624;SDS011;7912;51.376;6.126;2022-10-16T05:48:27;2.03;;;1.87;;
15624;SDS011;7912;51.376;6.126;2022-10-16T05:50:59;2.27;;;1.70;;
15624;SDS011;7912;51.376;6.126;2022-10-16T05:53:31;3.57;;;1.63;;
15624;SDS011;7912;51.376;6.126;2022-10-16T05:56:01;2.00;;;1.80;;
15624;SDS011;7912;51.376;6.126;2022-10-16T05:58:33;2.27;;;1.80;;
15624;SDS011;7912;51.376;6.126;2022-10-16T06:01:04;2.00;;;1.90;;
15624;SDS011;7912;51.376;6.126;2022-10-16T06:03:35;2.13;;;1.80;;
15624;SDS011;7912;51.376;6.126;2022-10-16T06:06:10;2.60;;;2.10;;
15624;SDS011;7912;51.376;6.126;2022-10-16T06:08:47;2.07;;;1.90;;
15624;SDS011;7912;51.376;6.126;2022-10-16T06:11:17;2.70;;;2.20;;
15624;SDS011;7912;51.376;6.126;2022-10-16T06:13:51;2.97;;;2.13;;
15624;SDS011;7912;51.376;6.126;2022-10-16T06:16:20;2.20;;;2.00;;
15624;SDS011;7912;51.376;6.126;2022-10-16T06:18:49;3.57;;;2.57;;
15624;SDS011;7912;51.376;6.126;2022-10-16T06:21:20;3.03;;;2.47;;
15624;SDS011;7912;51.376;6.126;2022-10-16T06:23:51;2.63;;;2.43;;
15624;SDS011;7912;51.376;6.126;2022-10-16T06:26:21;3.00;;;2.60;;
15624;SDS011;7912;51.376;6.126;2022-10-16T06:28:56;2.80;;;2.47;;
15624;SDS011;7912;51.376;6.126;2022-10-16T06:31:26;4.53;;;2.50;;
15624;SDS011;7912;51.376;6.126;2022-10-16T06:33:57;2.67;;;2.30;;
15624;SDS011;7912;51.376;6.126;2022-10-16T06:36:25;2.60;;;2.40;;
15624;SDS011;7912;51.376;6.126;2022-10-16T06:38:53;3.20;;;2.37;;
15624;SDS011;7912;51.376;6.126;2022-10-16T06:41:21;2.90;;;2.23;;
15624;SDS011;7912;51.376;6.126;2022-10-16T06:43:49;2.93;;;2.43;;
15624;SDS011;7912;51.376;6.126;2022-10-16T06:46:19;2.83;;;2.53;;
15624;SDS011;7912;51.376;6.126;2022-10-16T06:48:51;3.90;;;2.50;;
15624;SDS011;7912;51.376;6.126;2022-10-16T06:51:20;2.70;;;2.50;;
15624;SDS011;7912;51.376;6.126;2022-10-16T06:53:51;2.60;;;2.40;;
15624;SDS011;7912;51.376;6.126;2022-10-16T06:56:30;2.27;;;2.07;;
15624;SDS011;7912;51.376;6.126;2022-10-16T06:58:59;3.20;;;2.17;;
15624;SDS011;7912;51.376;6.126;2022-10-16T07:01:27;3.90;;;2.77;;
15624;SDS011;7912;51.376;6.126;2022-10-16T07:03:55;3.50;;;2.40;;
15624;SDS011;7912;51.376;6.126;2022-10-16T07:06:23;2.80;;;2.60;;
15624;SDS011;7912;51.376;6.126;2022-10-16T07:08:52;2.83;;;2.53;;
15624;SDS011;7912;51.376;6.126;2022-10-16T07:11:20;4.57;;;2.67;;
15624;SDS011;7912;51.376;6.126;2022-10-16T07:13:51;3.20;;;2.50;;
15624;SDS011;7912;51.376;6.126;2022-10-16T07:16:28;3.73;;;2.57;;
15624;SDS011;7912;51.376;6.126;2022-10-16T07:18:59;3.10;;;2.70;;
15624;SDS011;7912;51.376;6.126;2022-10-16T07:21:29;3.20;;;2.90;;
15624;SDS011;7912;51.376;6.126;2022-10-16T07:24:07;3.20;;;2.90;;
15624;SDS011;7912;51.376;6.126;2022-10-16T07:26:40;3.50;;;2.80;;
15624;SDS011;7912;51.376;6.126;2022-10-16T07:29:14;5.27;;;3.00;;
15624;SDS011;7912;51.376;6.126;2022-10-16T07:31:46;3.20;;;2.90;;
15624;SDS011;7912;51.376;6.126;2022-10-16T07:34:15;3.27;;;2.80;;
15624;SDS011;7912;51.376;6.126;2022-10-16T07:36:47;3.47;;;3.17;;
15624;SDS011;7912;51.376;6.126;2022-10-16T07:39:16;4.00;;;2.87;;
15624;SDS011;7912;51.376;6.126;2022-10-16T07:41:45;3.10;;;2.90;;
15624;SDS011;7912;51.376;6.126;2022-10-16T07:44:12;3.50;;;3.00;;
15624;SDS011;7912;51.376;6.126;2022-10-16T07:49:47;4.40;;;2.70;;
15624;SDS011;7912;51.376;6.126;2022-10-16T07:52:14;3.60;;;3.23;;
15624;SDS011;7912;51.376;6.126;2022-10-16T07:54:41;3.07;;;2.87;;
15624;SDS011;7912;51.376;6.126;2022-10-16T07:57:09;3.37;;;2.90;;
15624;SDS011;7912;51.376;6.126;2022-10-16T07:59:36;5.00;;;4.07;;
15624;SDS011;7912;51.376;6.126;2022-10-16T08:02:04;3.90;;;3.00;;
15624;SDS011;7912;51.376;6.126;2022-10-16T08:11:47;4.57;;;2.50;;
15624;SDS011;7912;51.376;6.126;2022-10-16T08:14:14;2.80;;;2.43;;
15624;SDS011;7912;51.376;6.126;2022-10-16T08:16:42;3.87;;;2.30;;
15624;SDS011;7912;51.376;6.126;2022-10-16T08:19:11;3.33;;;2.27;;
15624;SDS011;7912;51.376;6.126;2022-10-16T08:21:39;3.63;;;2.27;;
15624;SDS011;7912;51.376;6.126;2022-10-16T08:24:08;2.30;;;2.10;;
15624;SDS011;7912;51.376;6.126;2022-10-16T08:26:35;2.63;;;2.23;;
15624;SDS011;7912;51.376;6.126;2022-10-16T08:29:03;3.30;;;2.40;;
15624;SDS011;7912;51.376;6.126;2022-10-16T08:31:31;2.87;;;2.10;;
15624;SDS011;7912;51.376;6.126;2022-10-16T08:33:58;2.20;;;2.00;;
15624;SDS011;7912;51.376;6.126;2022-10-16T08:36:25;2.80;;;2.30;;
15624;SDS011;7912;51.376;6.126;2022-10-16T08:38:53;3.73;;;2.33;;
15624;SDS011;7912;51.376;6.126;2022-10-16T08:44:40;2.93;;;1.93;;
15624;SDS011;7912;51.376;6.126;2022-10-16T08:50:32;3.77;;;2.20;;
15624;SDS011;7912;51.376;6.126;2022-10-16T08:53:06;3.30;;;1.90;;
15624;SDS011;7912;51.376;6.126;2022-10-16T08:55:42;1.87;;;1.67;;
15624;SDS011;7912;51.376;6.126;2022-10-16T08:58:20;2.53;;;1.83;;
15624;SDS011;7912;51.376;6.126;2022-10-16T09:00:54;2.60;;;1.70;;
15624;SDS011;7912;51.376;6.126;2022-10-16T09:20:49;1.50;;;1.40;;
15624;SDS011;7912;51.376;6.126;2022-10-16T09:23:39;2.83;;;1.77;;
15624;SDS011;7912;51.376;6.126;2022-10-16T09:26:09;1.70;;;1.57;;
15624;SDS011;7912;51.376;6.126;2022-10-16T09:28:42;2.00;;;1.60;;
15624;SDS011;7912;51.376;6.126;2022-10-16T09:31:13;3.40;;;1.80;;
15624;SDS011;7912;51.376;6.126;2022-10-16T09:33:47;2.27;;;1.70;;
15624;SDS011;7912;51.376;6.126;2022-10-16T09:36:27;2.60;;;1.47;;
15624;SDS011;7912;51.376;6.126;2022-10-16T09:39:07;3.60;;;1.70;;
15624;SDS011;7912;51.376;6.126;2022-10-16T09:41:39;2.87;;;1.40;;
15624;SDS011;7912;51.376;6.126;2022-10-16T09:44:18;2.30;;;1.63;;
15624;SDS011;7912;51.376;6.126;2022-10-16T09:47:02;2.67;;;1.50;;
15624;SDS011;7912;51.376;6.126;2022-10-16T09:49:39;2.07;;;1.60;;
15624;SDS011;7912;51.376;6.126;2022-10-16T09:52:19;2.90;;;1.50;;
15624;SDS011;7912;51.376;6.126;2022-10-16T09:54:54;3.37;;;1.43;;
15624;SDS011;7912;51.376;6.126;2022-10-16T09:57:25;4.77;;;2.33;;
15624;SDS011;7912;51.376;6.126;2022-10-16T09:59:55;1.90;;;1.40;;
15624;SDS011;7912;51.376;6.126;2022-10-16T10:02:29;2.90;;;1.60;;
15624;SDS011;7912;51.376;6.126;2022-10-16T10:05:01;3.27;;;1.60;;
15624;SDS011;7912;51.376;6.126;2022-10-16T10:07:33;4.80;;;1.50;;
15624;SDS011;7912;51.376;6.126;2022-10-16T10:10:26;1.53;;;1.13;;
15624;SDS011;7912;51.376;6.126;2022-10-16T10:12:57;3.13;;;1.50;;
15624;SDS011;7912;51.376;6.126;2022-10-16T10:15:25;2.07;;;1.20;;
15624;SDS011;7912;51.376;6.126;2022-10-16T10:18:02;1.50;;;1.30;;
15624;SDS011;7912;51.376;6.126;2022-10-16T10:20:42;2.33;;;1.70;;
15624;SDS011;7912;51.376;6.126;2022-10-16T10:23:23;1.63;;;1.30;;
15624;SDS011;7912;51.376;6.126;2022-10-16T10:26:11;2.33;;;1.37;;
15624;SDS011;7912;51.376;6.126;2022-10-16T10:31:34;2.50;;;1.20;;
15624;SDS011;7912;51.376;6.126;2022-10-16T10:46:42;1.47;;;1.20;;
15624;SDS011;7912;51.376;6.126;2022-10-16T11:01:54;3.00;;;1.40;;
15624;SDS011;7912;51.376;6.126;2022-10-16T11:07:45;1.57;;;1.03;;
15624;SDS011;7912;51.376;6.126;2022-10-16T11:10:25;2.93;;;1.37;;
15624;SDS011;7912;51.376;6.126;2022-10-16T11:13:21;3.73;;;1.60;;
15624;SDS011;7912;51.376;6.126;2022-10-16T11:15:55;1.80;;;1.33;;
15624;SDS011;7912;51.376;6.126;2022-10-16T11:18:30;2.00;;;1.40;;
15624;SDS011;7912;51.376;6.126;2022-10-16T11:21:16;2.13;;;1.20;;
15624;SDS011;7912;51.376;6.126;2022-10-16T11:24:04;2.53;;;1.30;;
15624;SDS011;7912;51.376;6.126;2022-10-16T11:26:45;2.20;;;1.10;;
15624;SDS011;7912;51.376;6.126;2022-10-16T11:29:22;2.73;;;1.30;;
15624;SDS011;7912;51.376;6.126;2022-10-16T11:32:06;3.10;;;1.17;;
15624;SDS011;7912;51.376;6.126;2022-10-16T11:34:57;2.30;;;1.60;;
15624;SDS011;7912;51.376;6.126;2022-10-16T11:37:38;2.77;;;1.30;;
15624;SDS011;7912;51.376;6.126;2022-10-16T11:40:32;1.93;;;1.30;;
15624;SDS011;7912;51.376;6.126;2022-10-16T11:43:06;2.30;;;1.10;;
15624;SDS011;7912;51.376;6.126;2022-10-16T11:45:51;1.60;;;1.30;;
15624;SDS011;7912;51.376;6.126;2022-10-16T11:48:32;2.40;;;1.10;;
15624;SDS011;7912;51.376;6.126;2022-10-16T11:51:33;1.20;;;1.10;;
15624;SDS011;7912;51.376;6.126;2022-10-16T11:54:18;3.80;;;1.70;;
15624;SDS011;7912;51.376;6.126;2022-10-16T11:57:08;2.30;;;1.30;;
15624;SDS011;7912;51.376;6.126;2022-10-16T12:00:28;2.03;;;1.10;;
15624;SDS011;7912;51.376;6.126;2022-10-16T12:08:50;1.80;;;1.20;;
15624;SDS011;7912;51.376;6.126;2022-10-16T12:16:53;1.47;;;1.10;;
15624;SDS011;7912;51.376;6.126;2022-10-16T12:19:28;3.00;;;1.40;;
15624;SDS011;7912;51.376;6.126;2022-10-16T12:21:57;2.53;;;1.00;;
15624;SDS011;7912;51.376;6.126;2022-10-16T12:24:35;2.87;;;1.43;;
15624;SDS011;7912;51.376;6.126;2022-10-16T12:30:14;2.60;;;1.30;;
15624;SDS011;7912;51.376;6.126;2022-10-16T12:33:05;1.80;;;1.10;;
15624;SDS011;7912;51.376;6.126;2022-10-16T12:35:49;3.63;;;1.20;;
15624;SDS011;7912;51.376;6.126;2022-10-16T12:41:03;1.67;;;1.10;;
15624;SDS011;7912;51.376;6.126;2022-10-16T12:43:41;1.33;;;0.97;;
15624;SDS011;7912;51.376;6.126;2022-10-16T12:48:40;1.83;;;1.00;;
15624;SDS011;7912;51.376;6.126;2022-10-16T12:57:18;1.40;;;1.10;;
15624;SDS011;7912;51.376;6.126;2022-10-16T13:00:56;1.67;;;1.00;;
15624;SDS011;7912;51.376;6.126;2022-10-16T13:04:06;4.50;;;1.43;;
15624;SDS011;7912;51.376;6.126;2022-10-16T13:06:58;3.47;;;1.10;;
15624;SDS011;7912;51.376;6.126;2022-10-16T13:16:13;1.40;;;1.00;;
15624;SDS011;7912;51.376;6.126;2022-10-16T13:19:45;1.43;;;0.90;;
15624;SDS011;7912;51.376;6.126;2022-10-16T13:27:51;2.57;;;0.93;;
15624;SDS011;7912;51.376;6.126;2022-10-16T13:30:33;1.83;;;1.20;;
15624;SDS011;7912;51.376;6.126;2022-10-16T13:36:21;1.47;;;1.00;;
15624;SDS011;7912;51.376;6.126;2022-10-16T13:39:12;2.23;;;1.40;;
15624;SDS011;7912;51.376;6.126;2022-10-16T13:42:06;2.47;;;1.50;;
15624;SDS011;7912;51.376;6.126;2022-10-16T13:44:54;1.50;;;1.17;;
15624;SDS011;7912;51.376;6.126;2022-10-16T13:47:23;1.20;;;1.10;;
15624;SDS011;7912;51.376;6.126;2022-10-16T13:50:02;1.73;;;1.00;;
15624;SDS011;7912;51.376;6.126;2022-10-16T13:52:39;1.63;;;1.07;;
15624;SDS011;7912;51.376;6.126;2022-10-16T13:55:11;1.73;;;1.00;;
15624;SDS011;7912;51.376;6.126;2022-10-16T13:57:43;1.50;;;1.10;;
15624;SDS011;7912;51.376;6.126;2022-10-16T14:00:21;1.23;;;1.00;;
15624;SDS011;7912;51.376;6.126;2022-10-16T14:03:15;1.63;;;1.07;;
15624;SDS011;7912;51.376;6.126;2022-10-16T14:05:47;2.37;;;1.20;;
15624;SDS011;7912;51.376;6.126;2022-10-16T14:08:23;3.37;;;1.10;;
15624;SDS011;7912;51.376;6.126;2022-10-16T14:10:54;1.90;;;1.20;;
15624;SDS011;7912;51.376;6.126;2022-10-16T14:13:46;1.77;;;1.00;;
15624;SDS011;7912;51.376;6.126;2022-10-16T14:16:22;2.17;;;1.20;;
15624;SDS011;7912;51.376;6.126;2022-10-16T14:19:03;1.20;;;1.10;;
15624;SDS011;7912;51.376;6.126;2022-10-16T14:21:37;1.50;;;1.10;;
15624;SDS011;7912;51.376;6.126;2022-10-16T14:24:11;1.80;;;1.10;;
15624;SDS011;7912;51.376;6.126;2022-10-16T14:26:48;1.80;;;1.13;;
15624;SDS011;7912;51.376;6.126;2022-10-16T14:29:20;1.40;;;1.30;;
15624;SDS011;7912;51.376;6.126;2022-10-16T14:34:53;3.07;;;2.10;;
15624;SDS011;7912;51.376;6.126;2022-10-16T14:37:25;3.80;;;2.30;;
15624;SDS011;7912;51.376;6.126;2022-10-16T14:39:56;3.13;;;1.87;;
15624;SDS011;7912;51.376;6.126;2022-10-16T14:42:24;2.67;;;2.00;;
15624;SDS011;7912;51.376;6.126;2022-10-16T14:44:52;1.73;;;1.30;;
15624;SDS011;7912;51.376;6.126;2022-10-16T14:47:22;2.07;;;1.63;;
15624;SDS011;7912;51.376;6.126;2022-10-16T14:49:53;2.70;;;1.60;;
15624;SDS011;7912;51.376;6.126;2022-10-16T14:52:22;3.93;;;1.60;;
15624;SDS011;7912;51.376;6.126;2022-10-16T14:54:50;3.10;;;1.40;;
15624;SDS011;7912;51.376;6.126;2022-10-16T14:57:22;3.50;;;1.40;;
15624;SDS011;7912;51.376;6.126;2022-10-16T14:59:55;1.90;;;1.50;;
15624;SDS011;7912;51.376;6.126;2022-10-16T15:02:25;1.83;;;1.30;;
15624;SDS011;7912;51.376;6.126;2022-10-16T15:08:24;1.63;;;1.27;;
15624;SDS011;7912;51.376;6.126;2022-10-16T15:10:51;1.60;;;1.40;;
15624;SDS011;7912;51.376;6.126;2022-10-16T15:13:19;1.97;;;1.40;;
15624;SDS011;7912;51.376;6.126;2022-10-16T15:15:47;1.53;;;1.27;;
15624;SDS011;7912;51.376;6.126;2022-10-16T15:18:17;1.63;;;1.23;;
15624;SDS011;7912;51.376;6.126;2022-10-16T15:20:49;2.07;;;1.60;;
15624;SDS011;7912;51.376;6.126;2022-10-16T15:23:18;3.13;;;1.60;;
15624;SDS011;7912;51.376;6.126;2022-10-16T15:25:49;1.97;;;1.70;;
15624;SDS011;7912;51.376;6.126;2022-10-16T15:28:20;3.37;;;1.80;;
15624;SDS011;7912;51.376;6.126;2022-10-16T15:30:50;1.67;;;1.57;;
15624;SDS011;7912;51.376;6.126;2022-10-16T15:33:23;1.93;;;1.57;;
15624;SDS011;7912;51.376;6.126;2022-10-16T15:36:04;3.17;;;1.60;;
15624;SDS011;7912;51.376;6.126;2022-10-16T15:38:33;2.57;;;1.57;;
15624;SDS011;7912;51.376;6.126;2022-10-16T15:41:00;2.53;;;1.90;;
15624;SDS011;7912;51.376;6.126;2022-10-16T15:43:28;2.37;;;1.57;;
15624;SDS011;7912;51.376;6.126;2022-10-16T15:46:00;2.57;;;1.53;;
15624;SDS011;7912;51.376;6.126;2022-10-16T15:48:32;3.17;;;1.60;;
15624;SDS011;7912;51.376;6.126;2022-10-16T15:51:00;2.13;;;1.70;;
15624;SDS011;7912;51.376;6.126;2022-10-16T15:53:34;3.23;;;1.90;;
15624;SDS011;7912;51.376;6.126;2022-10-16T15:56:03;2.57;;;2.00;;
15624;SDS011;7912;51.376;6.126;2022-10-16T15:58:31;2.77;;;1.83;;
15624;SDS011;7912;51.376;6.126;2022-10-16T16:00:59;2.77;;;1.93;;
15624;SDS011;7912;51.376;6.126;2022-10-16T16:03:31;2.57;;;1.90;;
15624;SDS011;7912;51.376;6.126;2022-10-16T16:06:03;4.20;;;1.80;;
15624;SDS011;7912;51.376;6.126;2022-10-16T16:08:33;2.60;;;1.93;;
15624;SDS011;7912;51.376;6.126;2022-10-16T16:11:03;2.43;;;2.03;;
15624;SDS011;7912;51.376;6.126;2022-10-16T16:13:36;2.93;;;1.90;;
15624;SDS011;7912;51.376;6.126;2022-10-16T16:16:05;3.70;;;1.97;;
15624;SDS011;7912;51.376;6.126;2022-10-16T16:18:35;3.80;;;2.30;;
15624;SDS011;7912;51.376;6.126;2022-10-16T16:21:03;2.57;;;2.30;;
15624;SDS011;7912;51.376;6.126;2022-10-16T16:23:32;2.73;;;2.53;;
15624;SDS011;7912;51.376;6.126;2022-10-16T16:26:06;3.00;;;2.43;;
15624;SDS011;7912;51.376;6.126;2022-10-16T16:28:39;3.80;;;3.40;;
15624;SDS011;7912;51.376;6.126;2022-10-16T16:31:09;4.03;;;3.30;;
15624;SDS011;7912;51.376;6.126;2022-10-16T16:33:37;3.50;;;3.10;;
15624;SDS011;7912;51.376;6.126;2022-10-16T16:36:05;3.77;;;2.93;;
15624;SDS011;7912;51.376;6.126;2022-10-16T16:38:40;3.53;;;2.57;;
15624;SDS011;7912;51.376;6.126;2022-10-16T16:41:19;4.03;;;2.70;;
15624;SDS011;7912;51.376;6.126;2022-10-16T16:43:52;5.90;;;3.20;;
15624;SDS011;7912;51.376;6.126;2022-10-16T16:46:21;4.10;;;2.90;;
15624;SDS011;7912;51.376;6.126;2022-10-16T16:48:49;3.10;;;2.67;;
15624;SDS011;7912;51.376;6.126;2022-10-16T16:51:17;3.53;;;2.80;;
15624;SDS011;7912;51.376;6.126;2022-10-16T16:53:47;4.63;;;2.60;;
15624;SDS011;7912;51.376;6.126;2022-10-16T16:56:21;3.43;;;2.87;;
15624;SDS011;7912;51.376;6.126;2022-10-16T16:58:50;3.13;;;2.83;;
15624;SDS011;7912;51.376;6.126;2022-10-16T17:01:22;3.37;;;2.87;;
15624;SDS011;7912;51.376;6.126;2022-10-16T17:03:53;3.60;;;2.50;;
15624;SDS011;7912;51.376;6.126;2022-10-16T17:06:25;3.07;;;2.37;;
15624;SDS011;7912;51.376;6.126;2022-10-16T17:08:57;5.53;;;2.57;;
15624;SDS011;7912;51.376;6.126;2022-10-16T17:11:29;3.83;;;2.03;;
15624;SDS011;7912;51.376;6.126;2022-10-16T17:13:57;3.83;;;2.40;;
15624;SDS011;7912;51.376;6.126;2022-10-16T17:16:30;3.77;;;2.20;;
15624;SDS011;7912;51.376;6.126;2022-10-16T17:19:02;3.23;;;2.27;;
15624;SDS011;7912;51.376;6.126;2022-10-16T17:21:36;2.87;;;2.40;;
15624;SDS011;7912;51.376;6.126;2022-10-16T17:24:06;4.33;;;2.93;;
15624;SDS011;7912;51.376;6.126;2022-10-16T17:26:34;4.27;;;3.77;;
15624;SDS011;7912;51.376;6.126;2022-10-16T17:29:03;3.57;;;3.23;;
15624;SDS011;7912;51.376;6.126;2022-10-16T17:31:32;5.23;;;4.07;;
15624;SDS011;7912;51.376;6.126;2022-10-16T17:34:03;4.47;;;3.60;;
15624;SDS011;7912;51.376;6.126;2022-10-16T17:36:34;4.83;;;2.97;;
15624;SDS011;7912;51.376;6.126;2022-10-16T17:39:04;4.03;;;3.33;;
15624;SDS011;7912;51.376;6.126;2022-10-16T17:41:35;4.67;;;2.90;;
15624;SDS011;7912;51.376;6.126;2022-10-16T17:44:03;5.03;;;3.03;;